Flugplatz Rendsburg-Schachtholm

Für EDXR sind keine METAR/TAF Berichte vorhanden.
Es werden die Flugwettermeldungen vom Flugplatz Hohn Airport in 10 km Entfernung angezeigt.

Bericht für ETNH

vom 04.12. um 19:20 UTC

Wind 4 kt aus 120°

Sichtweite 8000 m

gering bewölkt in 9000 ft

aufgebrochene Bewölkung in 21000 ft

Temperatur 1.0°C

Taupunkt -1.0°C

Luftfeuchtigkeit 86%

Luftdruck 993 hPa

ETNH 041920Z 12004KT 8000 FEW090 BKN210 01/M01 Q0993 BLU+

Prognose für ETNH

vom 04.12. um 17:00 UTC

Zwischen 18:00 UTC und 06:00 UTC

Wind 10 kt aus 120°

Sichtweite 9000 m

keine signifikanten Wettererscheinungen

gering bewölkt in 3000 ft

aufgebrochene Bewölkung in 24000 ft


Am 05.12. zwischen 02:00 UTC und 06:00 UTC zeitweise

Wind 6 kt aus 90°

Sichtweite 5000 m

schwacher Regen

schwacher Schnee

aufgelockert bewölkt in 1500 ft

aufgebrochene Bewölkung in 8000 ft

TAF ETNH 041700Z 0418/0506 12010KT 9000 NSW FEW030 BKN240 TEMPO 0502/0506 09006KT 5000 -RASN SCT015 BKN080 BY ETGL
Impressum